createdAt,value
2022-12-29T01:00:51.818Z,-5.40
2022-12-29T01:03:25.147Z,-4.75
2022-12-29T01:05:58.745Z,-4.47
2022-12-29T01:08:32.070Z,-4.23
2022-12-29T01:11:02.335Z,-4.12
2022-12-29T01:13:33.330Z,-3.82
2022-12-29T01:16:05.989Z,-4.14
2022-12-29T01:18:40.231Z,-4.20
2022-12-29T01:21:13.922Z,-4.38
2022-12-29T01:23:47.789Z,-4.29
2022-12-29T01:26:22.274Z,-4.31
2022-12-29T01:28:55.926Z,-3.94
2022-12-29T01:31:28.230Z,-3.54
2022-12-29T01:33:58.929Z,-3.39
2022-12-29T01:36:29.504Z,-3.38
2022-12-29T01:39:04.722Z,-3.80
2022-12-29T01:41:35.258Z,-3.96
2022-12-29T01:44:05.895Z,-4.07
2022-12-29T01:46:42.639Z,-4.75
2022-12-29T01:49:18.681Z,-4.53
2022-12-29T01:51:54.750Z,-4.79
2022-12-29T01:54:30.954Z,-4.82
2022-12-29T01:57:04.400Z,-4.70
2022-12-29T01:59:43.617Z,-4.86
2022-12-29T02:02:16.622Z,-4.69
2022-12-29T02:04:49.946Z,-4.88
2022-12-29T03:13:25.064Z,-6.20
2022-12-29T03:16:06.719Z,-6.13
2022-12-29T03:19:01.660Z,-6.03
2022-12-29T03:21:54.663Z,-6.03
2022-12-29T03:24:29.475Z,-5.98
2022-12-29T03:27:02.340Z,-6.00
2022-12-29T03:29:43.265Z,-5.95
2022-12-29T03:32:17.031Z,-5.87
2022-12-29T03:34:49.048Z,-5.82
2022-12-29T03:37:24.152Z,-5.93
2022-12-29T03:39:58.143Z,-6.01
2022-12-29T03:42:50.935Z,-6.03
2022-12-29T03:45:23.425Z,-5.93
2022-12-29T03:47:54.899Z,-5.95
2022-12-29T03:50:25.447Z,-6.09
2022-12-29T03:52:56.242Z,-6.09
2022-12-29T03:55:29.410Z,-6.06
2022-12-29T03:58:00.626Z,-6.14
2022-12-29T04:00:32.821Z,-6.02
2022-12-29T04:03:03.701Z,-5.87
2022-12-29T04:05:50.818Z,-5.74
2022-12-29T04:08:21.455Z,-5.90
2022-12-29T04:10:54.725Z,-5.98
2022-12-29T04:13:25.454Z,-5.91
2022-12-29T04:15:59.964Z,-6.05
2022-12-29T04:18:31.209Z,-5.97
2022-12-29T04:21:05.329Z,-6.11
2022-12-29T04:23:38.219Z,-6.49
2022-12-29T04:26:10.828Z,-6.02
2022-12-29T04:28:41.423Z,-6.02
2022-12-29T04:31:14.535Z,-6.09
2022-12-29T04:33:45.149Z,-6.07
2022-12-29T04:36:15.855Z,-6.08
2022-12-29T04:38:56.327Z,-6.10
2022-12-29T04:41:27.011Z,-5.99
2022-12-29T04:44:04.665Z,-5.96
2022-12-29T04:46:49.974Z,-6.13
2022-12-29T04:49:20.715Z,-6.31
2022-12-29T04:51:51.435Z,-6.45
2022-12-29T04:54:22.096Z,-6.45
2022-12-29T04:56:52.684Z,-6.48
2022-12-29T04:59:23.273Z,-6.53
2022-12-29T05:01:56.412Z,-6.53
2022-12-29T05:04:27.139Z,-6.60
2022-12-29T05:06:57.786Z,-6.68
2022-12-29T05:09:28.490Z,-6.70
2022-12-29T05:11:59.261Z,-6.65
2022-12-29T05:14:33.312Z,-6.63
2022-12-29T05:17:05.726Z,-6.55
2022-12-29T05:19:36.436Z,-6.45
2022-12-29T05:22:07.067Z,-6.53
2022-12-29T05:24:54.380Z,-6.35
2022-12-29T05:27:25.081Z,-6.28
2022-12-29T05:29:57.314Z,-6.25
2022-12-29T05:32:32.432Z,-6.32
2022-12-29T05:35:03.907Z,-6.34
2022-12-29T05:37:34.470Z,-6.39
2022-12-29T05:40:05.179Z,-6.35
2022-12-29T05:42:35.765Z,-6.62
2022-12-29T05:45:08.916Z,-6.57
2022-12-29T05:47:41.751Z,-6.68
2022-12-29T05:50:12.973Z,-6.83
2022-12-29T05:52:47.656Z,-6.78
2022-12-29T05:55:18.405Z,-6.82
2022-12-29T05:57:49.309Z,-6.86
2022-12-29T06:00:20.553Z,-6.89
2022-12-29T06:02:52.980Z,-6.91
2022-12-29T06:05:23.800Z,-6.97
2022-12-29T06:07:54.422Z,-7.07
2022-12-29T06:10:25.330Z,-7.31
2022-12-29T06:12:56.016Z,-7.24
2022-12-29T06:15:28.972Z,-7.25
2022-12-29T06:18:20.125Z,-7.33
2022-12-29T06:20:51.278Z,-7.30
2022-12-29T06:23:22.121Z,-7.32
2022-12-29T06:25:55.982Z,-7.30
2022-12-29T06:28:26.690Z,-7.29
2022-12-29T06:30:57.457Z,-7.31
2022-12-29T06:33:32.135Z,-7.29
2022-12-29T06:36:02.682Z,-7.26
2022-12-29T06:38:35.789Z,-7.33
2022-12-29T06:41:06.611Z,-7.32
2022-12-29T06:43:39.833Z,-7.33
2022-12-29T06:46:10.647Z,-7.37
2022-12-29T06:48:43.969Z,-7.44
2022-12-29T06:51:16.479Z,-7.39
2022-12-29T06:53:48.091Z,-7.55
2022-12-29T06:56:18.750Z,-7.30
2022-12-29T06:58:49.302Z,-7.22
2022-12-29T07:01:38.073Z,-7.21
2022-12-29T07:04:15.372Z,-7.22
2022-12-29T07:07:03.187Z,-7.28
2022-12-29T07:09:41.784Z,-7.40
2022-12-29T07:12:12.638Z,-7.29
2022-12-29T07:14:52.444Z,-8.17
2022-12-29T07:17:36.991Z,-7.29
2022-12-29T07:20:16.009Z,-7.30
2022-12-29T07:22:46.616Z,-7.37
2022-12-29T07:25:18.358Z,-7.45
2022-12-29T07:27:48.995Z,-7.36
2022-12-29T07:30:20.048Z,-7.37
2022-12-29T07:32:50.615Z,-7.37
2022-12-29T07:35:23.050Z,-7.34
2022-12-29T07:37:53.809Z,-7.39
2022-12-29T07:40:24.418Z,-7.41
2022-12-29T07:42:55.188Z,-7.39
2022-12-29T07:45:25.936Z,-7.40
2022-12-29T07:47:56.528Z,-7.44
2022-12-29T07:50:29.112Z,-7.46
2022-12-29T07:52:59.721Z,-7.51
2022-12-29T07:55:32.078Z,-8.00
2022-12-29T07:58:02.769Z,-7.41
2022-12-29T08:00:59.351Z,-7.41
2022-12-29T08:03:30.267Z,-7.82
2022-12-29T08:06:03.224Z,-7.38
2022-12-29T08:08:34.059Z,-7.39
2022-12-29T08:11:04.737Z,-7.34
2022-12-29T08:13:38.392Z,-7.46
2022-12-29T08:16:12.460Z,-7.89
2022-12-29T08:18:43.200Z,-7.30
2022-12-29T08:24:56.600Z,-7.29
2022-12-29T08:27:28.395Z,-7.32
2022-12-29T08:30:00.394Z,-7.31
2022-12-29T08:32:31.685Z,-7.56
2022-12-29T08:35:05.398Z,-7.48
2022-12-29T08:37:37.131Z,-7.60
2022-12-29T08:40:12.539Z,-7.63
2022-12-29T08:43:00.456Z,-7.70
2022-12-29T08:45:31.133Z,-7.81
2022-12-29T08:48:02.072Z,-7.75
2022-12-29T08:51:25.103Z,-7.77
2022-12-29T08:53:56.090Z,-7.89
2022-12-29T08:56:32.467Z,-7.97
2022-12-29T08:59:03.398Z,-7.87
2022-12-29T09:01:51.295Z,-7.87
2022-12-29T09:04:22.564Z,-8.02
2022-12-29T09:06:54.952Z,-7.98
2022-12-29T09:09:42.852Z,-7.96
2022-12-29T09:12:16.389Z,-8.10
2022-12-29T09:14:47.188Z,-8.10
2022-12-29T09:17:35.986Z,-8.15
2022-12-29T09:20:10.055Z,-8.21
2022-12-29T09:22:43.816Z,-8.29
2022-12-29T09:25:15.111Z,-8.30
2022-12-29T09:28:05.965Z,-8.37
2022-12-29T09:30:39.343Z,-8.36
2022-12-29T09:33:14.413Z,-8.42
2022-12-29T09:35:48.411Z,-8.46
2022-12-29T09:38:19.089Z,-8.48
2022-12-29T09:40:54.457Z,-8.40
2022-12-29T09:43:55.374Z,-8.74
2022-12-29T09:46:29.757Z,-8.78
2022-12-29T09:49:11.197Z,-8.60
2022-12-29T09:51:44.848Z,-8.63
2022-12-29T09:54:34.626Z,-8.68
2022-12-29T09:57:05.596Z,-8.74
2022-12-29T09:59:46.995Z,-8.69
2022-12-29T10:02:33.156Z,-8.78
2022-12-29T10:05:06.453Z,-8.71
2022-12-29T10:08:01.446Z,-9.61
2022-12-29T10:10:54.056Z,-9.02
2022-12-29T10:13:37.909Z,-8.74
2022-12-29T10:16:20.254Z,-8.80
2022-12-29T10:19:25.912Z,-8.79
2022-12-29T10:22:19.105Z,-8.86
2022-12-29T10:24:56.878Z,-9.64
2022-12-29T10:27:29.762Z,-8.98
2022-12-29T10:30:02.323Z,-9.00
2022-12-29T10:32:42.065Z,-9.03
2022-12-29T10:35:24.417Z,-9.19
2022-12-29T10:38:02.247Z,-9.10
2022-12-29T10:40:45.585Z,-9.12
2022-12-29T10:43:30.898Z,-9.29
2022-12-29T10:46:08.437Z,-9.41
2022-12-29T10:48:42.738Z,-9.23
2022-12-29T10:51:26.563Z,-9.22
2022-12-29T10:54:03.022Z,-9.22
2022-12-29T10:56:53.090Z,-9.24
2022-12-29T10:59:26.445Z,-9.31
2022-12-29T11:02:05.277Z,-9.36
2022-12-29T11:04:54.882Z,-9.85
2022-12-29T11:07:27.755Z,-9.51
2022-12-29T11:10:22.344Z,-9.84
2022-12-29T11:13:17.328Z,-9.67
2022-12-29T11:15:49.952Z,-10.10
2022-12-29T11:18:26.308Z,-9.79
2022-12-29T11:21:02.324Z,-9.77
2022-12-29T11:23:37.473Z,-9.80
2022-12-29T11:26:18.160Z,-10.51
2022-12-29T11:28:55.951Z,-10.02
2022-12-29T11:31:27.529Z,-9.99
2022-12-29T11:33:58.286Z,-10.14
2022-12-29T11:36:31.573Z,-10.14
2022-12-29T11:39:02.452Z,-10.19
2022-12-29T11:41:42.264Z,-10.26
2022-12-29T11:44:20.540Z,-10.25
2022-12-29T11:46:56.541Z,-10.32
2022-12-29T11:49:32.925Z,-10.29
2022-12-29T11:52:05.567Z,-10.33
2022-12-29T11:54:40.764Z,-10.62
2022-12-29T11:57:18.565Z,-10.46
2022-12-29T11:59:58.550Z,-10.72
2022-12-29T12:02:45.581Z,-10.64
2022-12-29T12:05:28.887Z,-10.71
2022-12-29T12:08:13.054Z,-10.68
2022-12-29T12:10:54.428Z,-10.65
2022-12-29T12:13:31.554Z,-10.56
2022-12-29T12:16:09.458Z,-10.50
2022-12-29T12:18:48.874Z,-10.48
2022-12-29T12:21:29.268Z,-10.39
2022-12-29T12:24:20.194Z,-11.02
2022-12-29T12:27:06.376Z,-10.45
2022-12-29T12:29:45.057Z,-9.92
2022-12-29T12:32:21.948Z,-10.20
2022-12-29T12:34:54.588Z,-10.20
2022-12-29T12:37:57.033Z,-10.36
2022-12-29T12:41:02.424Z,-10.18
2022-12-29T12:43:47.951Z,-10.13
2022-12-29T12:47:01.739Z,-10.14
2022-12-29T12:50:09.266Z,-10.12
2022-12-29T12:52:59.509Z,-10.11
2022-12-29T12:55:46.650Z,-10.13
2022-12-29T12:58:29.406Z,-10.28
2022-12-29T13:01:10.993Z,-10.31
2022-12-29T13:04:01.599Z,-10.44
2022-12-29T13:06:45.922Z,-11.14
2022-12-29T13:09:50.160Z,-10.42
2022-12-29T13:12:34.398Z,-10.38
2022-12-29T13:15:19.557Z,-10.50
2022-12-29T13:17:58.078Z,-10.67
2022-12-29T13:20:39.848Z,-10.73
2022-12-29T13:23:27.441Z,-11.04
2022-12-29T13:26:08.542Z,-11.18
2022-12-29T13:28:51.636Z,-11.15
2022-12-29T13:31:34.092Z,-11.18
2022-12-29T13:34:24.391Z,-11.42
2022-12-29T13:36:59.820Z,-11.44
2022-12-29T13:39:37.534Z,-11.48
2022-12-29T13:42:12.203Z,-11.48
2022-12-29T13:44:50.455Z,-11.67
2022-12-29T13:47:37.266Z,-11.88
2022-12-29T13:50:22.741Z,-13.13
2022-12-29T13:53:06.641Z,-12.68
2022-12-29T13:55:44.948Z,-12.62
2022-12-29T13:58:25.064Z,-13.15
2022-12-29T14:01:02.936Z,-13.64
2022-12-29T14:03:55.786Z,-13.68
2022-12-29T14:06:28.433Z,-13.51
2022-12-29T14:09:02.555Z,-13.77
2022-12-29T14:11:37.826Z,-13.87
2022-12-29T14:14:20.397Z,-13.89
2022-12-29T14:16:51.307Z,-13.54
2022-12-29T14:19:27.928Z,-13.41
2022-12-29T14:22:01.941Z,-13.31
2022-12-29T14:24:49.938Z,-13.21
2022-12-29T14:31:01.443Z,-13.10
2022-12-29T14:33:34.566Z,-13.05
2022-12-29T14:36:28.949Z,-12.93
2022-12-29T14:38:59.631Z,-12.85
2022-12-29T14:41:34.217Z,-12.82
2022-12-29T14:44:14.956Z,-12.68
2022-12-29T14:47:01.472Z,-12.57
2022-12-29T14:49:35.876Z,-12.65
2022-12-29T14:52:19.194Z,-12.39
2022-12-29T14:54:55.449Z,-12.28
2022-12-29T14:57:42.531Z,-12.20
2022-12-29T15:00:22.311Z,-12.14
2022-12-29T15:03:08.191Z,-12.05
2022-12-29T15:05:44.542Z,-12.23
2022-12-29T15:08:22.550Z,-12.20
2022-12-29T15:11:01.663Z,-12.03
2022-12-29T15:13:55.296Z,-12.26
2022-12-29T15:16:27.711Z,-11.87
2022-12-29T15:19:02.012Z,-11.83
2022-12-29T15:21:35.770Z,-11.73
2022-12-29T15:24:08.814Z,-11.67
2022-12-29T15:26:44.762Z,-11.54
2022-12-29T15:29:33.533Z,-11.53
2022-12-29T15:32:14.092Z,-11.30
2022-12-29T15:34:44.795Z,-11.36
2022-12-29T15:37:22.926Z,-11.12
2022-12-29T15:39:57.015Z,-11.53
2022-12-29T15:42:54.330Z,-11.12
2022-12-29T15:45:30.544Z,-10.96
2022-12-29T15:48:02.307Z,-10.92
2022-12-29T15:50:35.257Z,-11.06
2022-12-29T15:53:06.937Z,-11.53
2022-12-29T15:55:42.032Z,-11.63
2022-12-29T15:58:24.011Z,-11.17
2022-12-29T16:00:56.540Z,-11.67
2022-12-29T16:03:30.326Z,-10.98
2022-12-29T16:06:11.037Z,-10.88
2022-12-29T16:08:43.547Z,-10.98
2022-12-29T16:11:27.662Z,-11.71
2022-12-29T16:14:00.039Z,-10.93
2022-12-29T16:16:33.058Z,-10.92
2022-12-29T16:19:07.517Z,-10.84
2022-12-29T16:21:39.515Z,-10.88
2022-12-29T16:24:15.622Z,-10.97
2022-12-29T16:26:53.305Z,-11.06
2022-12-29T16:29:25.164Z,-10.95
2022-12-29T16:32:02.090Z,-11.10
2022-12-29T16:34:38.642Z,-11.16
2022-12-29T16:37:30.792Z,-11.23
2022-12-29T16:44:22.152Z,-11.57
2022-12-29T16:47:17.571Z,-11.80
2022-12-29T16:49:53.812Z,-11.91
2022-12-29T16:52:28.006Z,-12.03
2022-12-29T16:55:02.904Z,-11.87
2022-12-29T16:57:35.741Z,-11.79
2022-12-29T17:00:11.145Z,-11.77
2022-12-29T17:02:46.606Z,-11.71
2022-12-29T17:05:18.134Z,-11.96
2022-12-29T17:07:49.624Z,-12.31
2022-12-29T17:10:20.544Z,-11.83
2022-12-29T17:12:52.389Z,-11.89
2022-12-29T17:15:30.759Z,-11.96
2022-12-29T17:18:04.160Z,-12.08
2022-12-29T17:20:36.460Z,-12.13
2022-12-29T17:23:27.371Z,-12.86
2022-12-29T17:25:58.727Z,-12.26
2022-12-29T17:28:35.757Z,-12.45
2022-12-29T17:31:09.897Z,-12.48
2022-12-29T17:33:43.705Z,-12.67
2022-12-29T17:36:15.485Z,-12.90
2022-12-29T17:38:46.146Z,-13.10
2022-12-29T17:41:18.131Z,-13.32
2022-12-29T17:43:48.967Z,-13.37
2022-12-29T17:46:21.327Z,-13.65
2022-12-29T17:48:53.973Z,-13.72
2022-12-29T17:51:25.595Z,-13.71
2022-12-29T17:53:56.148Z,-13.85
2022-12-29T17:56:26.978Z,-14.14
2022-12-29T17:58:59.221Z,-14.07
2022-12-29T18:01:36.198Z,-14.35
2022-12-29T18:04:13.039Z,-14.62
2022-12-29T18:06:43.813Z,-14.64
2022-12-29T18:09:14.453Z,-14.71
2022-12-29T18:11:46.794Z,-14.89
2022-12-29T18:14:18.245Z,-15.11
2022-12-29T18:16:50.453Z,-14.92
2022-12-29T18:19:21.023Z,-15.11
2022-12-29T18:21:51.558Z,-15.30
2022-12-29T18:24:22.099Z,-15.37
2022-12-29T18:26:52.653Z,-15.59
2022-12-29T18:29:23.296Z,-15.43
2022-12-29T18:31:55.541Z,-15.41
2022-12-29T18:34:26.156Z,-15.38
2022-12-29T18:36:56.799Z,-14.92
2022-12-29T18:39:29.910Z,-14.90
2022-12-29T18:42:00.860Z,-14.83
2022-12-29T18:44:31.435Z,-14.80
2022-12-29T18:47:03.742Z,-14.78
2022-12-29T18:49:35.462Z,-14.84
2022-12-29T18:52:06.276Z,-15.18
2022-12-29T18:54:37.081Z,-15.35
2022-12-29T18:57:08.442Z,-15.51
2022-12-29T18:59:39.047Z,-15.54
2022-12-29T19:02:19.968Z,-15.52
2022-12-29T19:04:53.265Z,-15.68
2022-12-29T19:07:24.798Z,-15.79
2022-12-29T19:09:55.606Z,-16.03
2022-12-29T19:12:28.489Z,-16.22
2022-12-29T19:14:59.617Z,-16.30
2022-12-29T19:17:32.083Z,-15.95
2022-12-29T19:20:04.593Z,-15.83
2022-12-29T19:22:35.248Z,-15.81
2022-12-29T19:25:05.917Z,-15.96
2022-12-29T19:27:36.510Z,-16.21
2022-12-29T19:30:07.654Z,-15.77
2022-12-29T19:32:42.637Z,-15.70
2022-12-29T19:35:15.435Z,-15.66
2022-12-29T19:37:46.408Z,-15.55
2022-12-29T19:40:18.757Z,-15.30
2022-12-29T19:42:49.540Z,-15.12
2022-12-29T19:45:21.364Z,-15.24
2022-12-29T19:47:53.606Z,-15.15
2022-12-29T19:50:27.390Z,-14.70
2022-12-29T19:53:05.005Z,-14.64
2022-12-29T19:55:36.342Z,-14.58
2022-12-29T19:58:07.018Z,-14.87
2022-12-29T20:00:37.744Z,-15.26
2022-12-29T20:03:10.250Z,-15.32
2022-12-29T20:05:41.571Z,-15.36
2022-12-29T20:08:12.338Z,-15.44
2022-12-29T20:10:43.381Z,-15.50
2022-12-29T20:13:14.005Z,-15.54
2022-12-29T20:15:46.744Z,-15.52
2022-12-29T20:18:23.764Z,-15.63
2022-12-29T20:21:04.937Z,-15.71
2022-12-29T20:23:36.125Z,-15.77
2022-12-29T20:26:07.450Z,-16.03
2022-12-29T20:28:38.807Z,-15.96
2022-12-29T20:31:11.907Z,-15.87
2022-12-29T20:33:44.208Z,-15.66
2022-12-29T20:36:17.634Z,-15.49
2022-12-29T20:38:50.303Z,-15.54
2022-12-29T20:41:35.824Z,-15.65
2022-12-29T20:44:07.533Z,-15.74
2022-12-29T20:46:43.560Z,-15.67
2022-12-29T20:49:16.803Z,-15.69
2022-12-29T20:52:05.754Z,-15.65
2022-12-29T20:54:39.767Z,-15.49
2022-12-29T20:57:10.730Z,-15.34
2022-12-29T20:59:41.616Z,-15.34
2022-12-29T21:02:21.936Z,-15.88
2022-12-29T21:05:23.598Z,-15.81
2022-12-29T21:07:54.598Z,-15.78
2022-12-29T21:10:25.810Z,-15.67
2022-12-29T21:12:56.644Z,-15.65
2022-12-29T21:15:27.312Z,-15.73
2022-12-29T21:17:58.033Z,-15.76
2022-12-29T21:20:33.037Z,-15.67
2022-12-29T21:23:04.416Z,-15.61
2022-12-29T21:25:39.309Z,-15.82
2022-12-29T21:28:12.917Z,-15.69
2022-12-29T21:31:01.006Z,-15.93
2022-12-29T21:33:31.604Z,-15.71
2022-12-29T21:36:08.529Z,-15.70
2022-12-29T21:38:39.251Z,-15.67
2022-12-29T21:41:28.335Z,-15.60
2022-12-29T21:48:27.165Z,-16.12
2022-12-29T21:51:16.002Z,-15.83
2022-12-29T21:53:48.559Z,-15.74
2022-12-29T21:56:20.769Z,-15.80
2022-12-29T21:59:10.156Z,-15.76
2022-12-29T22:01:58.313Z,-15.93
2022-12-29T22:04:46.183Z,-15.88
2022-12-29T22:07:33.487Z,-15.58
2022-12-29T22:10:22.585Z,-15.65
2022-12-29T22:13:02.544Z,-15.86
2022-12-29T22:15:33.133Z,-15.52
2022-12-29T22:18:04.675Z,-15.61
2022-12-29T22:20:37.575Z,-15.95
2022-12-29T22:23:25.247Z,-15.70
2022-12-29T22:25:57.473Z,-15.62
2022-12-29T22:28:28.225Z,-15.73
2022-12-29T22:30:58.820Z,-15.79
2022-12-29T22:33:29.459Z,-15.63
2022-12-29T22:35:59.943Z,-15.56
2022-12-29T22:38:30.595Z,-15.50
2022-12-29T22:41:05.044Z,-15.53
2022-12-29T22:43:45.961Z,-15.60
2022-12-29T22:46:19.589Z,-15.76
2022-12-29T22:48:50.187Z,-15.69
2022-12-29T22:51:21.110Z,-15.76
2022-12-29T22:53:52.422Z,-15.88
2022-12-29T22:56:27.075Z,-15.89
2022-12-29T22:58:57.639Z,-15.80
2022-12-29T23:01:28.347Z,-15.59
2022-12-29T23:04:27.066Z,-15.31
2022-12-29T23:06:49.960Z,-15.13
2022-12-29T23:09:22.773Z,-15.41
2022-12-29T23:11:57.544Z,-15.58
2022-12-29T23:14:28.222Z,-15.56
2022-12-29T23:16:58.806Z,-15.51
2022-12-29T23:19:29.540Z,-15.45
2022-12-29T23:22:00.040Z,-15.35
2022-12-29T23:24:30.735Z,-15.34
2022-12-29T23:27:02.992Z,-15.23
2022-12-29T23:29:33.594Z,-15.29
2022-12-29T23:32:04.252Z,-15.04
2022-12-29T23:34:34.747Z,-15.00
2022-12-29T23:37:05.325Z,-14.97
2022-12-29T23:39:35.875Z,-15.10
2022-12-29T23:42:08.595Z,-15.09
2022-12-29T23:44:39.153Z,-14.99
2022-12-29T23:47:09.695Z,-14.89
2022-12-29T23:49:40.315Z,-14.54
2022-12-29T23:52:13.293Z,-14.62
2022-12-29T23:54:46.001Z,-14.54
2022-12-29T23:57:18.270Z,-14.74
2022-12-29T23:59:50.838Z,-14.53
